Terminal Aerodrome Forecast
Issued by NWS Quad Cities IA IL

Home | Current Version | Previous Version | Text Only | Print | Product List | Glossary Off
Versions: 1 2 3 4 5 6 7 8 9 10 11 12 13 14 15 16 17 18 19 20

000
FTUS43 KDVN 102336
TAFMLI
TAF
KMLI 102336Z 1100/1124 12009KT 4SM -SHSN BR SCT025 OVC050
     FM110200 12009KT P6SM OVC040
     FM110500 13010KT 2SM -SN BR OVC020
      TEMPO 1105/1109 1SM -SN BR OVC007
     FM111000 14010KT 5SM BR OVC025
     FM111500 16011KT 2SM -SN BR OVC012=

USA.gov is the U.S. government's official web portal to all federal, state and local government web resources and services.